logo dgac
Martes 23 de Julio del 2019
Buscar por aerodromo o helipuerto
Ingrese nombre de aeródromo, localidad o designador OACI:
METAR del 23-07-2019 a las 10:00 UTC
METAR SCAP 231000Z AUTO 20006KT 160V260 9999 ////// 04/01 Q1029
Nan: AUTO
Viento: dirección 200 grados, velocidad 6 nudos
Viento con dirección variable entre 160 y 260 grados
Visibilidad: 10 km o más
Nan: //////
Temperatura: 4 °C
Rocío: 1 °C
Humedad_relativa: 81%
Presión: 1029 hPa
METAR del 23-07-2019 a las 09:00 UTC
METAR SCAP 230900Z AUTO VRB02KT 9999 ////// 03/01 Q1028
Nan: AUTO
Viento: dirección variable, velocidad 2 nudos
Visibilidad: 10 km o más
Nan: //////
Temperatura: 3 °C
Rocío: 1 °C
Humedad_relativa: 87%
Presión: 1028 hPa
METAR del 23-07-2019 a las 08:00 UTC
METAR SCAP 230800Z AUTO VRB03KT 9999 ////// 04/01 Q1028
Nan: AUTO
Viento: dirección variable, velocidad 3 nudos
Visibilidad: 10 km o más
Nan: //////
Temperatura: 4 °C
Rocío: 1 °C
Humedad_relativa: 81%
Presión: 1028 hPa
METAR del 23-07-2019 a las 08:00 UTC
METAR SCAP 230800Z AUTO VRB03KT 9999 ////// 04/01 Q1028
Nan: AUTO
Viento: dirección variable, velocidad 3 nudos
Visibilidad: 10 km o más
Nan: //////
Temperatura: 4 °C
Rocío: 1 °C
Humedad_relativa: 81%
Presión: 1028 hPa
METAR del 23-07-2019 a las 07:00 UTC
METAR SCAP 230700Z AUTO VRB02KT 9999 ////// 03/01 Q1028
Nan: AUTO
Viento: dirección variable, velocidad 2 nudos
Visibilidad: 10 km o más
Nan: //////
Temperatura: 3 °C
Rocío: 1 °C
Humedad_relativa: 87%
Presión: 1028 hPa
METAR del 23-07-2019 a las 06:00 UTC
METAR SCAP 230600Z AUTO VRB02KT 9999 ////// 04/00 Q1027
Nan: AUTO
Viento: dirección variable, velocidad 2 nudos
Visibilidad: 10 km o más
Nan: //////
Temperatura: 4 °C
Rocío: 0 °C
Humedad_relativa: 75%
Presión: 1027 hPa
METAR del 23-07-2019 a las 05:00 UTC
METAR SCAP 230500Z AUTO VRB06KT 9999 ////// 05/00 Q1027
Nan: AUTO
Viento: dirección variable, velocidad 6 nudos
Visibilidad: 10 km o más
Nan: //////
Temperatura: 5 °C
Rocío: 0 °C
Humedad_relativa: 70%
Presión: 1027 hPa
METAR del 23-07-2019 a las 04:00 UTC
METAR SCAP 230400Z AUTO 22007KT 180V260 9999 ////// 05/00 Q1027
Nan: AUTO
Viento: dirección 220 grados, velocidad 7 nudos
Viento con dirección variable entre 180 y 260 grados
Visibilidad: 10 km o más
Nan: //////
Temperatura: 5 °C
Rocío: 0 °C
Humedad_relativa: 70%
Presión: 1027 hPa
METAR del 23-07-2019 a las 03:00 UTC
METAR SCAP 230300Z AUTO 21007KT 150V250 9999 ////// 05/00 Q1027
Nan: AUTO
Viento: dirección 210 grados, velocidad 7 nudos
Viento con dirección variable entre 150 y 250 grados
Visibilidad: 10 km o más
Nan: //////
Temperatura: 5 °C
Rocío: 0 °C
Humedad_relativa: 70%
Presión: 1027 hPa
METAR del 23-07-2019 a las 02:00 UTC
METAR SCAP 230200Z AUTO VRB03KT 9999 ////// 03/01 Q1027
Nan: AUTO
Viento: dirección variable, velocidad 3 nudos
Visibilidad: 10 km o más
Nan: //////
Temperatura: 3 °C
Rocío: 1 °C
Humedad_relativa: 87%
Presión: 1027 hPa